sensor_id;sensor_type;location;lat;lon;timestamp;pressure;altitude;pressure_sealevel;temperature;humidity
10852;BME280;5479;52.046;6.314;2022-12-07T00:01:20;101680.47;;;3.89;100.00
10852;BME280;5479;52.046;6.314;2022-12-07T00:03:49;101685.81;;;3.83;100.00
10852;BME280;5479;52.046;6.314;2022-12-07T00:06:19;101682.38;;;3.81;100.00
10852;BME280;5479;52.046;6.314;2022-12-07T00:08:48;101681.59;;;3.77;100.00
10852;BME280;5479;52.046;6.314;2022-12-07T00:11:18;101676.41;;;3.73;100.00
10852;BME280;5479;52.046;6.314;2022-12-07T00:13:46;101671.25;;;3.66;100.00
10852;BME280;5479;52.046;6.314;2022-12-07T00:16:16;101680.97;;;3.61;100.00
10852;BME280;5479;52.046;6.314;2022-12-07T00:18:45;101670.59;;;3.55;100.00
10852;BME280;5479;52.046;6.314;2022-12-07T00:21:15;101682.03;;;3.50;100.00
10852;BME280;5479;52.046;6.314;2022-12-07T00:23:46;101672.56;;;3.41;100.00
10852;BME280;5479;52.046;6.314;2022-12-07T00:26:36;101663.84;;;3.41;100.00
10852;BME280;5479;52.046;6.314;2022-12-07T00:29:06;101658.69;;;3.36;100.00
10852;BME280;5479;52.046;6.314;2022-12-07T00:31:36;101664.06;;;3.27;100.00
10852;BME280;5479;52.046;6.314;2022-12-07T00:34:05;101661.50;;;3.26;100.00
10852;BME280;5479;52.046;6.314;2022-12-07T00:36:33;101659.78;;;3.22;100.00
10852;BME280;5479;52.046;6.314;2022-12-07T00:39:05;101648.41;;;3.24;100.00
10852;BME280;5479;52.046;6.314;2022-12-07T00:41:32;101649.31;;;3.22;100.00
10852;BME280;5479;52.046;6.314;2022-12-07T00:44:00;101655.44;;;3.22;100.00
10852;BME280;5479;52.046;6.314;2022-12-07T00:46:29;101661.53;;;3.21;100.00
10852;BME280;5479;52.046;6.314;2022-12-07T00:48:57;101662.53;;;3.14;100.00
10852;BME280;5479;52.046;6.314;2022-12-07T00:51:25;101656.50;;;3.09;100.00
10852;BME280;5479;52.046;6.314;2022-12-07T00:53:54;101658.16;;;3.15;100.00
10852;BME280;5479;52.046;6.314;2022-12-07T00:56:24;101659.16;;;3.08;100.00
10852;BME280;5479;52.046;6.314;2022-12-07T00:58:56;101646.94;;;3.05;100.00
10852;BME280;5479;52.046;6.314;2022-12-07T01:01:26;101645.28;;;3.01;100.00
10852;BME280;5479;52.046;6.314;2022-12-07T01:03:54;101647.09;;;2.96;100.00
10852;BME280;5479;52.046;6.314;2022-12-07T01:06:23;101643.66;;;2.94;100.00
10852;BME280;5479;52.046;6.314;2022-12-07T01:08:52;101638.47;;;2.91;100.00
10852;BME280;5479;52.046;6.314;2022-12-07T01:11:21;101641.09;;;2.91;100.00
10852;BME280;5479;52.046;6.314;2022-12-07T01:13:52;101634.16;;;2.88;100.00
10852;BME280;5479;52.046;6.314;2022-12-07T01:16:20;101634.25;;;2.81;100.00
10852;BME280;5479;52.046;6.314;2022-12-07T01:18:50;101645.59;;;2.80;100.00
10852;BME280;5479;52.046;6.314;2022-12-07T01:21:20;101654.28;;;2.82;100.00
10852;BME280;5479;52.046;6.314;2022-12-07T01:23:49;101655.19;;;2.81;100.00
10852;BME280;5479;52.046;6.314;2022-12-07T01:26:18;101658.63;;;2.81;100.00
10852;BME280;5479;52.046;6.314;2022-12-07T01:28:47;101659.53;;;2.79;100.00
10852;BME280;5479;52.046;6.314;2022-12-07T01:31:18;101658.72;;;2.77;100.00
10852;BME280;5479;52.046;6.314;2022-12-07T01:33:48;101647.41;;;2.75;100.00
10852;BME280;5479;52.046;6.314;2022-12-07T01:36:18;101648.38;;;2.69;100.00
10852;BME280;5479;52.046;6.314;2022-12-07T01:38:47;101657.16;;;2.64;100.00
10852;BME280;5479;52.046;6.314;2022-12-07T01:41:17;101657.94;;;2.69;100.00
10852;BME280;5479;52.046;6.314;2022-12-07T01:44:16;101654.56;;;2.61;100.00
10852;BME280;5479;52.046;6.314;2022-12-07T01:46:47;101659.84;;;2.58;100.00
10852;BME280;5479;52.046;6.314;2022-12-07T01:49:21;101658.13;;;2.57;100.00
10852;BME280;5479;52.046;6.314;2022-12-07T01:51:52;101653.72;;;2.57;100.00
10852;BME280;5479;52.046;6.314;2022-12-07T01:54:24;101652.97;;;2.51;100.00
10852;BME280;5479;52.046;6.314;2022-12-07T01:56:55;101654.75;;;2.49;100.00
10852;BME280;5479;52.046;6.314;2022-12-07T01:59:25;101657.38;;;2.44;100.00
10852;BME280;5479;52.046;6.314;2022-12-07T02:01:55;101655.72;;;2.40;100.00
10852;BME280;5479;52.046;6.314;2022-12-07T02:04:24;101652.25;;;2.38;100.00
10852;BME280;5479;52.046;6.314;2022-12-07T02:06:52;101656.66;;;2.34;100.00
10852;BME280;5479;52.046;6.314;2022-12-07T02:09:22;101648.00;;;2.29;100.00
10852;BME280;5479;52.046;6.314;2022-12-07T02:11:51;101641.06;;;2.25;100.00
10852;BME280;5479;52.046;6.314;2022-12-07T02:14:19;101648.94;;;2.24;100.00
10852;BME280;5479;52.046;6.314;2022-12-07T02:16:57;101655.00;;;2.26;100.00
10852;BME280;5479;52.046;6.314;2022-12-07T02:20:01;101636.75;;;2.24;100.00
10852;BME280;5479;52.046;6.314;2022-12-07T02:23:07;101649.75;;;2.27;100.00
10852;BME280;5479;52.046;6.314;2022-12-07T02:25:58;101642.81;;;2.26;100.00
10852;BME280;5479;52.046;6.314;2022-12-07T02:28:33;101646.28;;;2.25;100.00
10852;BME280;5479;52.046;6.314;2022-12-07T02:31:07;101651.63;;;2.19;100.00
10852;BME280;5479;52.046;6.314;2022-12-07T02:33:40;101641.22;;;2.13;100.00
10852;BME280;5479;52.046;6.314;2022-12-07T02:36:12;101651.72;;;2.10;100.00
10852;BME280;5479;52.046;6.314;2022-12-07T02:38:50;101653.50;;;2.05;100.00
10852;BME280;5479;52.046;6.314;2022-12-07T02:41:22;101652.63;;;2.05;100.00
10852;BME280;5479;52.046;6.314;2022-12-07T02:43:53;101650.94;;;2.02;100.00
10852;BME280;5479;52.046;6.314;2022-12-07T02:46:28;101650.09;;;2.00;100.00
10852;BME280;5479;52.046;6.314;2022-12-07T02:48:58;101646.59;;;2.00;100.00
10852;BME280;5479;52.046;6.314;2022-12-07T02:51:30;101647.47;;;2.00;100.00
10852;BME280;5479;52.046;6.314;2022-12-07T02:53:58;101642.25;;;2.00;100.00
10852;BME280;5479;52.046;6.314;2022-12-07T02:56:33;101645.63;;;2.07;100.00
10852;BME280;5479;52.046;6.314;2022-12-07T02:59:12;101641.34;;;2.01;100.00
10852;BME280;5479;52.046;6.314;2022-12-07T03:01:51;101642.22;;;2.02;100.00
10852;BME280;5479;52.046;6.314;2022-12-07T03:04:36;101650.00;;;2.06;100.00
10852;BME280;5479;52.046;6.314;2022-12-07T03:07:16;101646.47;;;2.10;100.00
10852;BME280;5479;52.046;6.314;2022-12-07T03:09:51;101648.25;;;2.08;100.00
10852;BME280;5479;52.046;6.314;2022-12-07T03:12:26;101651.75;;;2.07;100.00
10852;BME280;5479;52.046;6.314;2022-12-07T03:15:05;101648.31;;;2.02;100.00
10852;BME280;5479;52.046;6.314;2022-12-07T03:17:38;101656.16;;;2.01;100.00
10852;BME280;5479;52.046;6.314;2022-12-07T03:20:09;101661.38;;;2.01;100.00
10852;BME280;5479;52.046;6.314;2022-12-07T03:22:40;101653.53;;;2.02;100.00
10852;BME280;5479;52.046;6.314;2022-12-07T03:25:11;101652.66;;;2.02;100.00
10852;BME280;5479;52.046;6.314;2022-12-07T03:27:44;101660.50;;;2.03;100.00
10852;BME280;5479;52.046;6.314;2022-12-07T03:30:17;101653.47;;;2.08;100.00
10852;BME280;5479;52.046;6.314;2022-12-07T03:32:49;101646.44;;;2.13;100.00
10852;BME280;5479;52.046;6.314;2022-12-07T03:35:23;101650.66;;;2.26;100.00
10852;BME280;5479;52.046;6.314;2022-12-07T03:37:56;101646.16;;;2.37;100.00
10852;BME280;5479;52.046;6.314;2022-12-07T03:40:28;101635.53;;;2.50;100.00
10852;BME280;5479;52.046;6.314;2022-12-07T03:42:58;101626.72;;;2.58;100.00
10852;BME280;5479;52.046;6.314;2022-12-07T03:45:34;101630.16;;;2.62;100.00
10852;BME280;5479;52.046;6.314;2022-12-07T03:48:09;101626.66;;;2.63;100.00
10852;BME280;5479;52.046;6.314;2022-12-07T03:50:43;101623.16;;;2.62;100.00
10852;BME280;5479;52.046;6.314;2022-12-07T03:53:15;101637.09;;;2.63;100.00
10852;BME280;5479;52.046;6.314;2022-12-07T03:55:47;101632.66;;;2.69;100.00
10852;BME280;5479;52.046;6.314;2022-12-07T03:58:19;101637.88;;;2.72;100.00
10852;BME280;5479;52.046;6.314;2022-12-07T04:00:49;101624.66;;;2.80;100.00
10852;BME280;5479;52.046;6.314;2022-12-07T04:03:19;101624.59;;;2.86;100.00
10852;BME280;5479;52.046;6.314;2022-12-07T04:05:47;101622.88;;;2.82;100.00
10852;BME280;5479;52.046;6.314;2022-12-07T04:08:15;101611.50;;;2.86;100.00
10852;BME280;5479;52.046;6.314;2022-12-07T04:10:43;101621.03;;;2.90;100.00
10852;BME280;5479;52.046;6.314;2022-12-07T04:13:12;101617.59;;;2.86;100.00
10852;BME280;5479;52.046;6.314;2022-12-07T04:15:39;101617.81;;;2.73;100.00
10852;BME280;5479;52.046;6.314;2022-12-07T04:18:07;101628.38;;;2.64;100.00
10852;BME280;5479;52.046;6.314;2022-12-07T04:20:38;101622.44;;;2.54;100.00
10852;BME280;5479;52.046;6.314;2022-12-07T04:23:06;101611.13;;;2.51;100.00
10852;BME280;5479;52.046;6.314;2022-12-07T04:25:34;101625.16;;;2.45;100.00
10852;BME280;5479;52.046;6.314;2022-12-07T04:28:02;101628.78;;;2.33;100.00
10852;BME280;5479;52.046;6.314;2022-12-07T04:30:30;101627.13;;;2.26;100.00
10852;BME280;5479;52.046;6.314;2022-12-07T04:32:59;101627.19;;;2.20;100.00
10852;BME280;5479;52.046;6.314;2022-12-07T04:35:26;101636.81;;;2.17;100.00
10852;BME280;5479;52.046;6.314;2022-12-07T04:37:56;101633.34;;;2.15;100.00
10852;BME280;5479;52.046;6.314;2022-12-07T04:40:24;101629.03;;;2.12;100.00
10852;BME280;5479;52.046;6.314;2022-12-07T04:42:52;101629.88;;;2.16;100.00
10852;BME280;5479;52.046;6.314;2022-12-07T04:45:20;101639.25;;;2.30;100.00
10852;BME280;5479;52.046;6.314;2022-12-07T04:47:48;101638.28;;;2.40;100.00
10852;BME280;5479;52.046;6.314;2022-12-07T04:50:15;101632.88;;;2.54;100.00
10852;BME280;5479;52.046;6.314;2022-12-07T04:52:43;101629.25;;;2.63;100.00
10852;BME280;5479;52.046;6.314;2022-12-07T04:55:13;101624.81;;;2.68;100.00
10852;BME280;5479;52.046;6.314;2022-12-07T04:57:41;101624.81;;;2.68;100.00
10852;BME280;5479;52.046;6.314;2022-12-07T05:00:10;101619.75;;;2.59;100.00
10852;BME280;5479;52.046;6.314;2022-12-07T05:02:38;101611.13;;;2.51;100.00
10852;BME280;5479;52.046;6.314;2022-12-07T05:05:07;101610.31;;;2.47;100.00
10852;BME280;5479;52.046;6.314;2022-12-07T05:07:35;101613.91;;;2.40;100.00
10852;BME280;5479;52.046;6.314;2022-12-07T05:10:04;101620.03;;;2.37;100.00
10852;BME280;5479;52.046;6.314;2022-12-07T05:12:33;101612.28;;;2.28;100.00
10852;BME280;5479;52.046;6.314;2022-12-07T05:15:01;101611.44;;;2.26;100.00
10852;BME280;5479;52.046;6.314;2022-12-07T05:17:29;101609.72;;;2.25;100.00
10852;BME280;5479;52.046;6.314;2022-12-07T05:19:57;101613.84;;;2.41;100.00
10852;BME280;5479;52.046;6.314;2022-12-07T05:22:24;101609.63;;;2.31;100.00
10852;BME280;5479;52.046;6.314;2022-12-07T05:24:54;101614.88;;;2.31;100.00
10852;BME280;5479;52.046;6.314;2022-12-07T05:27:22;101614.00;;;2.32;100.00
10852;BME280;5479;52.046;6.314;2022-12-07T05:29:52;101617.41;;;2.36;100.00
10852;BME280;5479;52.046;6.314;2022-12-07T05:32:20;101629.63;;;2.37;100.00
10852;BME280;5479;52.046;6.314;2022-12-07T05:34:47;101616.53;;;2.35;100.00
10852;BME280;5479;52.046;6.314;2022-12-07T05:37:15;101616.53;;;2.35;100.00
10852;BME280;5479;52.046;6.314;2022-12-07T05:39:44;101620.06;;;2.33;100.00
10852;BME280;5479;52.046;6.314;2022-12-07T05:42:12;101613.13;;;2.32;100.00
10852;BME280;5479;52.046;6.314;2022-12-07T05:44:41;101613.09;;;2.35;100.00
10852;BME280;5479;52.046;6.314;2022-12-07T05:47:11;101613.03;;;2.39;100.00
10852;BME280;5479;52.046;6.314;2022-12-07T05:49:42;101616.41;;;2.48;100.00
10852;BME280;5479;52.046;6.314;2022-12-07T05:52:10;101617.13;;;2.57;100.00
10852;BME280;5479;52.046;6.314;2022-12-07T05:54:38;101615.38;;;2.59;100.00
10852;BME280;5479;52.046;6.314;2022-12-07T05:57:07;101616.97;;;2.68;100.00
10852;BME280;5479;52.046;6.314;2022-12-07T05:59:36;101611.66;;;2.75;100.00
10852;BME280;5479;52.046;6.314;2022-12-07T06:02:04;101608.00;;;2.87;100.00
10852;BME280;5479;52.046;6.314;2022-12-07T06:04:35;101612.38;;;2.85;100.00
10852;BME280;5479;52.046;6.314;2022-12-07T06:07:04;101610.75;;;2.76;100.00
10852;BME280;5479;52.046;6.314;2022-12-07T06:09:32;101613.34;;;2.79;100.00
10852;BME280;5479;52.046;6.314;2022-12-07T06:12:00;101605.56;;;2.75;100.00
10852;BME280;5479;52.046;6.314;2022-12-07T06:14:46;101599.53;;;2.68;100.00
10852;BME280;5479;52.046;6.314;2022-12-07T06:17:14;101605.69;;;2.67;100.00
10852;BME280;5479;52.046;6.314;2022-12-07T06:19:45;101610.13;;;2.61;100.00
10852;BME280;5479;52.046;6.314;2022-12-07T06:22:13;101602.47;;;2.47;100.00
10852;BME280;5479;52.046;6.314;2022-12-07T06:24:43;101597.34;;;2.39;100.00
10852;BME280;5479;52.046;6.314;2022-12-07T06:27:11;101612.16;;;2.39;100.00
10852;BME280;5479;52.046;6.314;2022-12-07T06:29:39;101605.22;;;2.38;100.00
10852;BME280;5479;52.046;6.314;2022-12-07T06:32:07;101606.09;;;2.37;100.00
10852;BME280;5479;52.046;6.314;2022-12-07T06:34:36;101607.81;;;2.36;100.00
10852;BME280;5479;52.046;6.314;2022-12-07T06:37:05;101606.16;;;2.32;100.00
10852;BME280;5479;52.046;6.314;2022-12-07T06:39:33;101611.31;;;2.35;100.00
10852;BME280;5479;52.046;6.314;2022-12-07T06:42:01;101605.31;;;2.27;100.00
10852;BME280;5479;52.046;6.314;2022-12-07T06:44:29;101605.34;;;2.26;100.00
10852;BME280;5479;52.046;6.314;2022-12-07T06:46:56;101611.44;;;2.25;100.00
10852;BME280;5479;52.046;6.314;2022-12-07T06:49:24;101603.56;;;2.28;100.00
10852;BME280;5479;52.046;6.314;2022-12-07T06:51:52;101609.72;;;2.25;100.00
10852;BME280;5479;52.046;6.314;2022-12-07T06:54:22;101615.81;;;2.26;100.00
10852;BME280;5479;52.046;6.314;2022-12-07T06:56:50;101608.03;;;2.20;100.00
10852;BME280;5479;52.046;6.314;2022-12-07T06:59:18;101614.19;;;2.16;100.00
10852;BME280;5479;52.046;6.314;2022-12-07T07:01:46;101617.78;;;2.07;100.00
10852;BME280;5479;52.046;6.314;2022-12-07T07:04:14;101619.56;;;2.05;100.00
10852;BME280;5479;52.046;6.314;2022-12-07T07:06:43;101621.34;;;2.00;100.00
10852;BME280;5479;52.046;6.314;2022-12-07T07:09:11;101619.63;;;1.98;100.00
10852;BME280;5479;52.046;6.314;2022-12-07T07:11:40;101619.66;;;1.95;100.00
10852;BME280;5479;52.046;6.314;2022-12-07T07:14:08;101622.25;;;1.96;100.00
10852;BME280;5479;52.046;6.314;2022-12-07T07:16:37;101626.69;;;1.88;100.00
10852;BME280;5479;52.046;6.314;2022-12-07T07:19:05;101625.88;;;1.83;100.00
10852;BME280;5479;52.046;6.314;2022-12-07T07:21:33;101627.69;;;1.78;100.00
10852;BME280;5479;52.046;6.314;2022-12-07T07:24:01;101628.53;;;1.77;100.00
10852;BME280;5479;52.046;6.314;2022-12-07T07:26:29;101625.09;;;1.75;100.00
10852;BME280;5479;52.046;6.314;2022-12-07T07:28:58;101628.63;;;1.71;100.00
10852;BME280;5479;52.046;6.314;2022-12-07T07:31:26;101628.63;;;1.71;100.00
10852;BME280;5479;52.046;6.314;2022-12-07T07:33:54;101629.50;;;1.70;100.00
10852;BME280;5479;52.046;6.314;2022-12-07T07:36:22;101632.97;;;1.69;100.00
10852;BME280;5479;52.046;6.314;2022-12-07T07:38:50;101627.75;;;1.69;100.00
10852;BME280;5479;52.046;6.314;2022-12-07T07:41:18;101627.81;;;1.64;100.00
10852;BME280;5479;52.046;6.314;2022-12-07T07:43:46;101629.53;;;1.68;100.00
10852;BME280;5479;52.046;6.314;2022-12-07T07:46:15;101630.41;;;1.67;100.00
10852;BME280;5479;52.046;6.314;2022-12-07T07:48:43;101633.88;;;1.66;100.00
10852;BME280;5479;52.046;6.314;2022-12-07T07:51:11;101630.38;;;1.69;100.00
10852;BME280;5479;52.046;6.314;2022-12-07T07:53:39;101630.34;;;1.73;100.00
10852;BME280;5479;52.046;6.314;2022-12-07T07:56:07;101634.66;;;1.76;100.00
10852;BME280;5479;52.046;6.314;2022-12-07T07:58:35;101638.97;;;1.80;100.00
10852;BME280;5479;52.046;6.314;2022-12-07T08:01:05;101634.59;;;1.80;100.00
10852;BME280;5479;52.046;6.314;2022-12-07T08:03:35;101636.25;;;1.92;100.00
10852;BME280;5479;52.046;6.314;2022-12-07T08:06:03;101640.50;;;1.99;100.00
10852;BME280;5479;52.046;6.314;2022-12-07T08:08:31;101639.63;;;2.00;100.00
10852;BME280;5479;52.046;6.314;2022-12-07T08:10:59;101638.72;;;2.04;100.00
10852;BME280;5479;52.046;6.314;2022-12-07T08:13:28;101643.03;;;2.08;100.00
10852;BME280;5479;52.046;6.314;2022-12-07T08:15:55;101641.03;;;2.28;100.00
10852;BME280;5479;52.046;6.314;2022-12-07T08:18:23;101649.41;;;2.56;100.00
10852;BME280;5479;52.046;6.314;2022-12-07T08:20:58;101650.91;;;2.74;100.00
10852;BME280;5479;52.046;6.314;2022-12-07T08:23:26;101641.88;;;2.96;100.00
10852;BME280;5479;52.046;6.314;2022-12-07T08:26:00;101657.38;;;3.08;100.00
10852;BME280;5479;52.046;6.314;2022-12-07T08:28:28;101653.75;;;3.18;100.00
10852;BME280;5479;52.046;6.314;2022-12-07T08:30:58;101653.81;;;3.15;100.00
10852;BME280;5479;52.046;6.314;2022-12-07T08:33:28;101651.84;;;3.28;100.00
10852;BME280;5479;52.046;6.314;2022-12-07T08:36:01;101637.66;;;3.42;100.00
10852;BME280;5479;52.046;6.314;2022-12-07T08:38:34;101636.38;;;3.64;100.00
10852;BME280;5479;52.046;6.314;2022-12-07T08:41:02;101640.41;;;3.84;100.00
10852;BME280;5479;52.046;6.314;2022-12-07T08:43:31;101642.00;;;3.91;100.00
10852;BME280;5479;52.046;6.314;2022-12-07T08:46:06;101642.81;;;3.94;100.00
10852;BME280;5479;52.046;6.314;2022-12-07T08:48:36;101640.09;;;3.99;100.00
10852;BME280;5479;52.046;6.314;2022-12-07T08:51:05;101635.84;;;3.95;100.00
10852;BME280;5479;52.046;6.314;2022-12-07T08:53:34;101642.03;;;3.89;100.00
10852;BME280;5479;52.046;6.314;2022-12-07T08:56:03;101639.81;;;3.68;100.00
10852;BME280;5479;52.046;6.314;2022-12-07T08:58:33;101653.16;;;3.54;100.00
10852;BME280;5479;52.046;6.314;2022-12-07T09:01:01;101651.63;;;3.41;100.00
10852;BME280;5479;52.046;6.314;2022-12-07T09:03:30;101652.38;;;3.48;100.00
10852;BME280;5479;52.046;6.314;2022-12-07T09:05:58;101654.63;;;3.71;100.00
10852;BME280;5479;52.046;6.314;2022-12-07T09:08:30;101646.53;;;3.83;100.00
10852;BME280;5479;52.046;6.314;2022-12-07T09:10:59;101644.56;;;3.94;100.00
10852;BME280;5479;52.046;6.314;2022-12-07T09:13:27;101642.03;;;3.89;100.00
10852;BME280;5479;52.046;6.314;2022-12-07T09:15:55;101650.47;;;4.06;100.00
10852;BME280;5479;52.046;6.314;2022-12-07T09:18:23;101647.53;;;4.21;100.00
10852;BME280;5479;52.046;6.314;2022-12-07T09:20:51;101644.59;;;4.38;100.00
10852;BME280;5479;52.046;6.314;2022-12-07T09:23:19;101644.91;;;4.63;100.00
10852;BME280;5479;52.046;6.314;2022-12-07T09:25:48;101635.47;;;5.31;100.00
10852;BME280;5479;52.046;6.314;2022-12-07T09:28:16;101642.16;;;6.12;100.00
10852;BME280;5479;52.046;6.314;2022-12-07T09:30:45;101641.63;;;5.99;100.00
10852;BME280;5479;52.046;6.314;2022-12-07T09:33:13;101641.31;;;5.77;100.00
10852;BME280;5479;52.046;6.314;2022-12-07T09:35:44;101639.72;;;5.36;100.00
10852;BME280;5479;52.046;6.314;2022-12-07T09:38:12;101637.72;;;5.11;100.00
10852;BME280;5479;52.046;6.314;2022-12-07T09:40:41;101636.56;;;5.22;100.00
10852;BME280;5479;52.046;6.314;2022-12-07T09:43:15;101634.81;;;5.23;100.00
10852;BME280;5479;52.046;6.314;2022-12-07T09:45:45;101632.66;;;5.38;100.00
10852;BME280;5479;52.046;6.314;2022-12-07T09:48:17;101629.16;;;6.05;100.00
10852;BME280;5479;52.046;6.314;2022-12-07T09:50:47;101628.56;;;6.85;100.00
10852;BME280;5479;52.046;6.314;2022-12-07T09:53:20;101617.72;;;6.39;100.00
10852;BME280;5479;52.046;6.314;2022-12-07T09:55:48;101615.34;;;6.30;100.00
10852;BME280;5479;52.046;6.314;2022-12-07T09:58:20;101615.50;;;6.24;100.00
10852;BME280;5479;52.046;6.314;2022-12-07T10:00:50;101611.41;;;6.14;100.00
10852;BME280;5479;52.046;6.314;2022-12-07T10:03:21;101610.47;;;6.45;100.00
10852;BME280;5479;52.046;6.314;2022-12-07T10:05:51;101602.69;;;6.42;100.00
10852;BME280;5479;52.046;6.314;2022-12-07T10:08:19;101606.25;;;6.40;100.00
10852;BME280;5479;52.046;6.314;2022-12-07T10:10:50;101608.47;;;7.37;100.00
10852;BME280;5479;52.046;6.314;2022-12-07T10:13:22;101596.69;;;7.73;100.00
10852;BME280;5479;52.046;6.314;2022-12-07T10:15:52;101598.34;;;7.51;100.00
10852;BME280;5479;52.046;6.314;2022-12-07T10:18:31;101589.38;;;7.81;100.00
10852;BME280;5479;52.046;6.314;2022-12-07T10:21:08;101587.84;;;9.55;100.00
10852;BME280;5479;52.046;6.314;2022-12-07T10:23:39;101586.13;;;10.70;100.00
10852;BME280;5479;52.046;6.314;2022-12-07T10:26:26;101579.22;;;11.04;100.00
10852;BME280;5479;52.046;6.314;2022-12-07T10:28:59;101575.34;;;10.38;100.00
10852;BME280;5479;52.046;6.314;2022-12-07T10:31:27;101572.44;;;10.03;100.00
10852;BME280;5479;52.046;6.314;2022-12-07T10:33:57;101566.97;;;10.47;100.00
10852;BME280;5479;52.046;6.314;2022-12-07T10:36:26;101565.88;;;11.05;100.00
10852;BME280;5479;52.046;6.314;2022-12-07T10:39:00;101572.19;;;11.03;100.00
10852;BME280;5479;52.046;6.314;2022-12-07T10:41:30;101569.00;;;11.66;100.00
10852;BME280;5479;52.046;6.314;2022-12-07T10:43:59;101574.19;;;11.16;100.00
10852;BME280;5479;52.046;6.314;2022-12-07T10:50:13;101562.06;;;10.94;100.00
10852;BME280;5479;52.046;6.314;2022-12-07T10:53:08;101559.09;;;10.64;100.00
10852;BME280;5479;52.046;6.314;2022-12-07T10:56:06;101560.13;;;9.84;100.00
10852;BME280;5479;52.046;6.314;2022-12-07T10:58:50;101550.13;;;8.88;100.00
10852;BME280;5479;52.046;6.314;2022-12-07T11:01:30;101559.38;;;8.55;100.00
10852;BME280;5479;52.046;6.314;2022-12-07T11:04:17;101549.16;;;8.22;100.00
10852;BME280;5479;52.046;6.314;2022-12-07T11:06:52;101542.84;;;8.03;100.00
10852;BME280;5479;52.046;6.314;2022-12-07T11:09:49;101556.22;;;7.74;100.00
10852;BME280;5479;52.046;6.314;2022-12-07T11:12:27;101552.66;;;7.50;100.00
10852;BME280;5479;52.046;6.314;2022-12-07T11:15:04;101545.66;;;7.49;100.00
10852;BME280;5479;52.046;6.314;2022-12-07T11:17:47;101552.75;;;7.22;100.00
10852;BME280;5479;52.046;6.314;2022-12-07T11:20:29;101543.31;;;7.42;100.00
10852;BME280;5479;52.046;6.314;2022-12-07T11:23:04;101541.00;;;7.57;100.00
10852;BME280;5479;52.046;6.314;2022-12-07T11:25:43;101535.78;;;7.56;100.00
10852;BME280;5479;52.046;6.314;2022-12-07T11:28:25;101537.28;;;7.63;100.00
10852;BME280;5479;52.046;6.314;2022-12-07T11:31:05;101534.16;;;7.52;100.00
10852;BME280;5479;52.046;6.314;2022-12-07T11:33:41;101537.00;;;7.21;100.00
10852;BME280;5479;52.046;6.314;2022-12-07T11:36:23;101530.78;;;6.97;100.00
10852;BME280;5479;52.046;6.314;2022-12-07T11:39:03;101529.59;;;6.80;100.00
10852;BME280;5479;52.046;6.314;2022-12-07T11:41:35;101529.78;;;6.74;100.00
10852;BME280;5479;52.046;6.314;2022-12-07T11:44:06;101536.31;;;6.62;100.00
10852;BME280;5479;52.046;6.314;2022-12-07T11:46:46;101533.28;;;6.46;100.00
10852;BME280;5479;52.046;6.314;2022-12-07T11:49:24;101526.91;;;6.53;100.00
10852;BME280;5479;52.046;6.314;2022-12-07T11:51:57;101529.66;;;6.78;100.00
10852;BME280;5479;52.046;6.314;2022-12-07T11:54:32;101522.47;;;7.36;100.00
10852;BME280;5479;52.046;6.314;2022-12-07T11:57:04;101513.59;;;8.32;100.00
10852;BME280;5479;52.046;6.314;2022-12-07T11:59:40;101506.56;;;8.55;100.00
10852;BME280;5479;52.046;6.314;2022-12-07T12:02:15;101507.88;;;8.88;100.00
10852;BME280;5479;52.046;6.314;2022-12-07T12:04:54;101502.34;;;9.14;100.00
10852;BME280;5479;52.046;6.314;2022-12-07T12:07:26;101493.13;;;9.24;100.00
10852;BME280;5479;52.046;6.314;2022-12-07T12:09:56;101498.09;;;8.90;100.00
10852;BME280;5479;52.046;6.314;2022-12-07T12:12:48;101487.78;;;8.40;100.00
10852;BME280;5479;52.046;6.314;2022-12-07T12:15:33;101480.91;;;8.13;100.00
10852;BME280;5479;52.046;6.314;2022-12-07T12:18:35;101486.06;;;8.16;100.00
10852;BME280;5479;52.046;6.314;2022-12-07T12:21:12;101481.25;;;8.04;100.00
10852;BME280;5479;52.046;6.314;2022-12-07T12:23:44;101487.78;;;8.17;100.00
10852;BME280;5479;52.046;6.314;2022-12-07T12:26:17;101479.78;;;8.19;100.00
10852;BME280;5479;52.046;6.314;2022-12-07T12:28:54;101481.59;;;7.95;100.00
10852;BME280;5479;52.046;6.314;2022-12-07T12:31:34;101480.34;;;7.82;100.00
10852;BME280;5479;52.046;6.314;2022-12-07T12:34:04;101483.84;;;7.82;100.00
10852;BME280;5479;52.046;6.314;2022-12-07T12:36:48;101478.84;;;7.98;100.00
10852;BME280;5479;52.046;6.314;2022-12-07T12:39:17;101474.59;;;8.17;100.00
10852;BME280;5479;52.046;6.314;2022-12-07T12:41:57;101478.63;;;8.27;100.00
10852;BME280;5479;52.046;6.314;2022-12-07T12:45:11;101470.13;;;8.19;100.00
10852;BME280;5479;52.046;6.314;2022-12-07T12:48:02;101465.06;;;8.13;100.00
10852;BME280;5479;52.046;6.314;2022-12-07T12:50:32;101456.34;;;8.11;100.00
10852;BME280;5479;52.046;6.314;2022-12-07T12:53:14;101462.69;;;7.84;100.00
10852;BME280;5479;52.046;6.314;2022-12-07T12:56:23;101462.09;;;7.76;100.00
10852;BME280;5479;52.046;6.314;2022-12-07T12:59:23;101461.69;;;7.86;100.00
10852;BME280;5479;52.046;6.314;2022-12-07T13:01:56;101453.41;;;7.74;100.00
10852;BME280;5479;52.046;6.314;2022-12-07T13:04:48;101454.09;;;7.79;100.00
10852;BME280;5479;52.046;6.314;2022-12-07T13:07:52;101454.91;;;7.81;100.00
10852;BME280;5479;52.046;6.314;2022-12-07T13:10:33;101446.81;;;7.62;100.00
10852;BME280;5479;52.046;6.314;2022-12-07T13:13:25;101444.34;;;7.58;100.00
10852;BME280;5479;52.046;6.314;2022-12-07T13:15:53;101440.56;;;7.65;100.00
10852;BME280;5479;52.046;6.314;2022-12-07T13:18:34;101439.94;;;7.58;100.00
10852;BME280;5479;52.046;6.314;2022-12-07T13:21:38;101442.28;;;7.66;100.00
10852;BME280;5479;52.046;6.314;2022-12-07T13:23:55;101436.78;;;7.72;100.00
10852;BME280;5479;52.046;6.314;2022-12-07T13:26:36;101436.50;;;7.79;100.00
10852;BME280;5479;52.046;6.314;2022-12-07T13:29:09;101429.44;;;7.80;100.00
10852;BME280;5479;52.046;6.314;2022-12-07T13:31:39;101426.00;;;7.78;100.00